Time;durP1;ratioP1;P1;durP2;ratioP2;P2;SDS_P1;SDS_P2;PMS_P1;PMS_P2;Temp;Humidity;BMP_temperature;BMP_pressure;BME280_temperature;BME280_humidity;BME280_pressure;Samples;Min_cycle;Max_cycle;Signal;HPM_P1;HPM_P2
2021/06/27 00:00:30;;;;;;;39.75;14.90;;;;;;;;;;5054451;28;21095;-62
2021/06/27 00:02:55;;;;;;;37.42;14.27;;;;;;;;;;5036133;28;20154;-63
2021/06/27 00:05:25;;;;;;;39.08;14.13;;;;;;;;;;5041330;28;20036;-64
2021/06/27 00:07:51;;;;;;;39.17;13.60;;;;;;;;;;5058128;28;20055;-62
2021/06/27 00:10:18;;;;;;;37.50;15.48;;;;;;;;;;5023910;28;20102;-62
2021/06/27 00:12:44;;;;;;;41.50;14.45;;;;;;;;;;5058098;28;20451;-63
2021/06/27 00:15:18;;;;;;;36.92;14.13;;;;;;;;;;5057601;28;20116;-63
2021/06/27 00:17:44;;;;;;;44.90;14.77;;;;;;;;;;5040066;28;20040;-63
2021/06/27 00:20:10;;;;;;;43.03;14.85;;;;;;;;;;5039740;28;20048;-62
2021/06/27 00:22:36;;;;;;;40.10;13.50;;;;;;;;;;5057942;28;20126;-61
2021/06/27 00:25:04;;;;;;;39.83;13.13;;;;;;;;;;5057044;28;21120;-62
2021/06/27 00:27:29;;;;;;;38.08;13.55;;;;;;;;;;5057906;28;20031;-62
2021/06/27 00:29:56;;;;;;;40.72;13.70;;;;;;;;;;5040491;28;20060;-62
2021/06/27 00:32:21;;;;;;;40.42;14.35;;;;;;;;;;5032280;28;20103;-63
2021/06/27 00:34:47;;;;;;;37.22;14.18;;;;;;;;;;5057672;28;20064;-62
2021/06/27 00:37:13;;;;;;;43.20;15.02;;;;;;;;;;5055128;28;20036;-63
2021/06/27 00:39:40;;;;;;;33.50;14.02;;;;;;;;;;5043792;28;20117;-63
2021/06/27 00:42:08;;;;;;;41.70;14.60;;;;;;;;;;5055105;28;20052;-62
2021/06/27 00:44:34;;;;;;;31.27;12.77;;;;;;;;;;5058011;28;20037;-62
2021/06/27 00:47:01;;;;;;;42.22;14.38;;;;;;;;;;5057339;28;20222;-63
2021/06/27 00:49:27;;;;;;;44.47;15.43;;;;;;;;;;5056333;28;20098;-63
2021/06/27 00:51:58;;;;;;;37.28;14.60;;;;;;;;;;5056367;28;20032;-63
2021/06/27 00:54:23;;;;;;;39.08;13.65;;;;;;;;;;5043569;28;20028;-61
2021/06/27 00:56:49;;;;;;;34.25;11.77;;;;;;;;;;5041542;28;20094;-62
2021/06/27 00:59:14;;;;;;;35.65;12.90;;;;;;;;;;5058227;28;20357;-62
2021/06/27 01:01:40;;;;;;;33.30;13.15;;;;;;;;;;5027090;28;20056;-63
2021/06/27 01:04:08;;;;;;;35.75;12.88;;;;;;;;;;5040511;28;20383;-64
2021/06/27 01:06:34;;;;;;;34.70;13.90;;;;;;;;;;5057335;28;20135;-63
2021/06/27 01:09:00;;;;;;;33.28;13.18;;;;;;;;;;5023183;28;20032;-62
2021/06/27 01:11:25;;;;;;;29.67;13.73;;;;;;;;;;5044774;28;20059;-63
2021/06/27 01:13:51;;;;;;;34.15;13.32;;;;;;;;;;5027461;28;20089;-62
2021/06/27 01:16:18;;;;;;;32.25;12.65;;;;;;;;;;5041564;28;20032;-63
2021/06/27 01:18:43;;;;;;;44.40;14.82;;;;;;;;;;5021125;28;20074;-63
2021/06/27 01:21:14;;;;;;;38.83;14.20;;;;;;;;;;5057995;28;20092;-63
2021/06/27 01:23:40;;;;;;;39.03;14.98;;;;;;;;;;5057237;28;20387;-62
2021/06/27 01:26:06;;;;;;;38.30;13.43;;;;;;;;;;5038321;28;20039;-63
2021/06/27 01:28:32;;;;;;;34.03;13.48;;;;;;;;;;5058180;28;20035;-63
2021/06/27 01:30:58;;;;;;;37.90;14.00;;;;;;;;;;5041225;28;20506;-63
2021/06/27 01:33:23;;;;;;;50.17;19.83;;;;;;;;;;5056411;28;20129;-62
2021/06/27 01:35:51;;;;;;;69.72;24.83;;;;;;;;;;5043130;28;20037;-62
2021/06/27 01:38:21;;;;;;;44.47;14.05;;;;;;;;;;5057261;28;20030;-62
2021/06/27 01:40:47;;;;;;;42.42;14.32;;;;;;;;;;5058807;28;20097;-62
2021/06/27 01:43:17;;;;;;;40.63;15.48;;;;;;;;;;5057597;28;20048;-64
2021/06/27 01:45:44;;;;;;;49.45;16.77;;;;;;;;;;5039897;28;20056;-62
2021/06/27 01:48:11;;;;;;;47.33;17.27;;;;;;;;;;5056649;28;20039;-62
2021/06/27 01:50:39;;;;;;;76.90;27.48;;;;;;;;;;5024447;28;20040;-62
2021/06/27 01:53:05;;;;;;;57.95;21.75;;;;;;;;;;5031474;28;20024;-63
2021/06/27 01:55:31;;;;;;;38.95;15.95;;;;;;;;;;5042805;28;20028;-63
2021/06/27 01:57:58;;;;;;;48.25;15.93;;;;;;;;;;5048253;28;20495;-62
2021/06/27 02:00:25;;;;;;;45.05;16.95;;;;;;;;;;5043687;28;20395;-62
2021/06/27 02:02:51;;;;;;;42.80;15.02;;;;;;;;;;5040544;28;20027;-62
2021/06/27 02:05:17;;;;;;;37.30;14.52;;;;;;;;;;5031067;28;20480;-63
2021/06/27 02:07:45;;;;;;;38.42;15.23;;;;;;;;;;5056923;28;21863;-62
2021/06/27 02:10:13;;;;;;;38.70;14.20;;;;;;;;;;5037380;28;20036;-62
2021/06/27 02:12:39;;;;;;;40.45;14.32;;;;;;;;;;5057299;28;20603;-62
2021/06/27 02:15:07;;;;;;;43.33;14.43;;;;;;;;;;5055874;28;20097;-62
2021/06/27 02:17:34;;;;;;;35.20;14.27;;;;;;;;;;5057869;28;20109;-62
2021/06/27 02:19:59;;;;;;;38.55;13.70;;;;;;;;;;5056759;28;20629;-62
2021/06/27 02:22:25;;;;;;;41.05;14.13;;;;;;;;;;5042238;28;20028;-62
2021/06/27 02:24:50;;;;;;;42.10;15.63;;;;;;;;;;5023209;28;20040;-63
2021/06/27 02:27:17;;;;;;;41.53;15.50;;;;;;;;;;5056936;28;20542;-62
2021/06/27 02:29:43;;;;;;;41.35;14.88;;;;;;;;;;5057506;28;20371;-62
2021/06/27 02:32:09;;;;;;;44.90;15.70;;;;;;;;;;5041027;28;20027;-64
2021/06/27 02:34:34;;;;;;;45.72;16.23;;;;;;;;;;5056472;28;20029;-62
2021/06/27 02:37:00;;;;;;;36.05;14.82;;;;;;;;;;5056113;28;20067;-63
2021/06/27 02:39:27;;;;;;;33.67;12.45;;;;;;;;;;5055281;28;21992;-63
2021/06/27 02:41:53;;;;;;;40.85;14.20;;;;;;;;;;5046734;28;20044;-63
2021/06/27 02:44:21;;;;;;;39.65;13.77;;;;;;;;;;5056730;28;20041;-63
2021/06/27 02:46:47;;;;;;;37.35;14.65;;;;;;;;;;5057375;28;20550;-64
2021/06/27 02:49:13;;;;;;;46.60;13.52;;;;;;;;;;5057817;28;20024;-64
2021/06/27 02:51:38;;;;;;;37.90;14.18;;;;;;;;;;5058250;28;21910;-63
2021/06/27 02:54:07;;;;;;;43.65;14.75;;;;;;;;;;5060756;28;20482;-63
2021/06/27 02:56:32;;;;;;;42.88;15.65;;;;;;;;;;5061685;28;20103;-62
2021/06/27 02:58:58;;;;;;;37.45;14.68;;;;;;;;;;5040589;28;20039;-63
2021/06/27 03:01:23;;;;;;;45.92;14.70;;;;;;;;;;5035557;28;20029;-62
2021/06/27 03:03:52;;;;;;;47.00;15.75;;;;;;;;;;5026242;28;20032;-63
2021/06/27 03:06:18;;;;;;;48.92;16.02;;;;;;;;;;5051011;28;20031;-64
2021/06/27 03:08:46;;;;;;;42.05;14.75;;;;;;;;;;5059584;28;20111;-63
2021/06/27 03:11:14;;;;;;;45.78;15.40;;;;;;;;;;5045113;28;20484;-63
2021/06/27 03:13:58;;;;;;;41.47;15.82;;;;;;;;;;5060834;28;22086;-63
2021/06/27 03:16:45;;;;;;;38.30;14.60;;;;;;;;;;5060944;28;20087;-63
2021/06/27 03:19:29;;;;;;;51.00;16.13;;;;;;;;;;5049086;28;20527;-63
2021/06/27 03:22:14;;;;;;;39.30;15.32;;;;;;;;;;5059345;28;20055;-63
2021/06/27 03:24:59;;;;;;;47.40;17.20;;;;;;;;;;5059242;28;20113;-63
2021/06/27 03:27:43;;;;;;;37.85;14.80;;;;;;;;;;5059192;28;20047;-64
2021/06/27 03:30:28;;;;;;;38.55;15.18;;;;;;;;;;5059833;28;20078;-63
2021/06/27 03:33:14;;;;;;;38.22;14.30;;;;;;;;;;5064441;28;20039;-63
2021/06/27 03:35:58;;;;;;;39.92;15.27;;;;;;;;;;5063082;28;20573;-64
2021/06/27 03:39:04;;;;;;;37.60;14.48;;;;;;;;;;5059490;28;20407;-63
2021/06/27 03:41:55;;;;;;;38.15;14.70;;;;;;;;;;5047768;28;20098;-63
2021/06/27 03:44:39;;;;;;;40.33;14.40;;;;;;;;;;5062857;28;20059;-63
2021/06/27 03:47:24;;;;;;;37.05;14.23;;;;;;;;;;5046886;28;20035;-64
2021/06/27 03:50:09;;;;;;;36.63;13.73;;;;;;;;;;5059550;28;20514;-64
2021/06/27 03:52:53;;;;;;;35.42;13.57;;;;;;;;;;5044889;28;20043;-63
2021/06/27 03:55:38;;;;;;;34.58;13.80;;;;;;;;;;5047209;28;20069;-63
2021/06/27 03:58:24;;;;;;;37.15;12.82;;;;;;;;;;5059087;28;20135;-63
2021/06/27 04:01:08;;;;;;;31.02;13.05;;;;;;;;;;5059098;28;20594;-64
2021/06/27 04:03:52;;;;;;;36.47;13.27;;;;;;;;;;5045198;28;20086;-62
2021/06/27 04:06:37;;;;;;;33.22;12.48;;;;;;;;;;5042786;28;20063;-64
2021/06/27 04:09:22;;;;;;;31.92;12.32;;;;;;;;;;5059020;28;20127;-62
2021/06/27 04:12:06;;;;;;;34.72;12.73;;;;;;;;;;5060083;28;20090;-63
2021/06/27 04:14:54;;;;;;;45.33;13.82;;;;;;;;;;5059633;28;20051;-64
2021/06/27 04:17:38;;;;;;;35.72;13.07;;;;;;;;;;5061464;28;20050;-63
2021/06/27 04:20:22;;;;;;;35.42;12.57;;;;;;;;;;5046982;28;20042;-63
2021/06/27 04:23:07;;;;;;;31.27;12.43;;;;;;;;;;5058764;28;20055;-63
2021/06/27 04:25:51;;;;;;;27.75;12.02;;;;;;;;;;5059217;28;20297;-65
2021/06/27 04:28:35;;;;;;;26.20;11.40;;;;;;;;;;5058382;28;20055;-64
2021/06/27 04:31:22;;;;;;;23.25;11.45;;;;;;;;;;5058266;28;20086;-63
2021/06/27 04:34:07;;;;;;;27.10;12.07;;;;;;;;;;5057973;28;20177;-63
2021/06/27 04:36:52;;;;;;;26.52;11.63;;;;;;;;;;5058809;28;20039;-64
2021/06/27 04:39:36;;;;;;;28.50;10.95;;;;;;;;;;5057661;28;20048;-62
2021/06/27 04:42:21;;;;;;;26.67;11.68;;;;;;;;;;5057480;28;20106;-63
2021/06/27 04:45:06;;;;;;;23.25;10.10;;;;;;;;;;5043481;28;21151;-65
2021/06/27 04:47:50;;;;;;;23.17;10.20;;;;;;;;;;5031787;28;20050;-63
2021/06/27 04:50:35;;;;;;;25.52;10.82;;;;;;;;;;5043371;28;20086;-63
2021/06/27 04:53:23;;;;;;;20.15;9.23;;;;;;;;;;5055973;28;22241;-63
2021/06/27 04:56:07;;;;;;;19.58;9.80;;;;;;;;;;5057843;28;20071;-64
2021/06/27 04:58:51;;;;;;;20.85;9.88;;;;;;;;;;5063456;28;20047;-63
2021/06/27 05:01:35;;;;;;;21.92;8.93;;;;;;;;;;5041423;28;20903;-63
2021/06/27 05:04:20;;;;;;;18.35;9.45;;;;;;;;;;5043782;28;20102;-64
2021/06/27 05:07:04;;;;;;;17.75;9.25;;;;;;;;;;5062687;28;20098;-64
2021/06/27 05:09:49;;;;;;;14.90;8.23;;;;;;;;;;5042754;28;21043;-63
2021/06/27 05:12:33;;;;;;;18.05;8.77;;;;;;;;;;5047150;28;20648;-66
2021/06/27 05:14:59;;;;;;;16.48;8.68;;;;;;;;;;5031969;28;20040;-65
2021/06/27 05:17:25;;;;;;;23.42;8.35;;;;;;;;;;5057104;28;20028;-63
2021/06/27 05:19:51;;;;;;;16.98;8.23;;;;;;;;;;5037188;28;20032;-63
2021/06/27 05:22:17;;;;;;;13.80;7.70;;;;;;;;;;5042015;28;20020;-63
2021/06/27 05:24:43;;;;;;;12.63;7.40;;;;;;;;;;5056678;28;20036;-64
2021/06/27 05:27:09;;;;;;;13.20;7.05;;;;;;;;;;5057750;28;20039;-66
2021/06/27 05:29:37;;;;;;;15.50;7.95;;;;;;;;;;5056995;28;20072;-63
2021/06/27 05:32:03;;;;;;;14.60;7.85;;;;;;;;;;5046237;28;20036;-64
2021/06/27 05:34:30;;;;;;;15.15;7.20;;;;;;;;;;5057333;28;20139;-66
2021/06/27 05:36:55;;;;;;;11.25;6.68;;;;;;;;;;5023369;28;20100;-64
2021/06/27 05:39:23;;;;;;;14.63;6.55;;;;;;;;;;5058314;28;20530;-63
2021/06/27 05:41:48;;;;;;;12.88;6.68;;;;;;;;;;5057350;28;20032;-63
2021/06/27 05:44:16;;;;;;;12.13;5.90;;;;;;;;;;5039654;28;20607;-64
2021/06/27 05:46:42;;;;;;;9.80;5.72;;;;;;;;;;5056050;28;20054;-64
2021/06/27 05:49:08;;;;;;;9.02;5.63;;;;;;;;;;5056124;28;20170;-64
2021/06/27 05:51:37;;;;;;;10.25;6.07;;;;;;;;;;5056776;28;20032;-66
2021/06/27 05:54:03;;;;;;;7.82;5.40;;;;;;;;;;5030750;28;20029;-63
2021/06/27 05:56:29;;;;;;;8.10;5.57;;;;;;;;;;5047422;28;20056;-65
2021/06/27 05:58:54;;;;;;;8.98;5.93;;;;;;;;;;5056541;28;20135;-64
2021/06/27 06:01:20;;;;;;;8.98;5.35;;;;;;;;;;5056325;28;20033;-63
2021/06/27 06:03:46;;;;;;;11.25;5.82;;;;;;;;;;5037817;28;20123;-63
2021/06/27 06:06:12;;;;;;;11.73;5.97;;;;;;;;;;5056131;28;20591;-66
2021/06/27 06:08:41;;;;;;;9.00;5.68;;;;;;;;;;5038638;28;20118;-64
2021/06/27 06:11:07;;;;;;;11.25;5.65;;;;;;;;;;5045590;28;20614;-65
2021/06/27 06:13:33;;;;;;;7.53;5.00;;;;;;;;;;5055340;28;20085;-66
2021/06/27 06:16:02;;;;;;;9.10;5.65;;;;;;;;;;5030353;28;20036;-63
2021/06/27 06:18:31;;;;;;;10.38;5.30;;;;;;;;;;5055099;28;20052;-63
2021/06/27 06:20:58;;;;;;;8.20;5.72;;;;;;;;;;5026423;28;20032;-64
2021/06/27 06:23:24;;;;;;;8.23;5.45;;;;;;;;;;5043545;28;21997;-64
2021/06/27 06:25:50;;;;;;;9.32;5.13;;;;;;;;;;5067578;28;20222;-64
2021/06/27 06:28:17;;;;;;;8.90;5.40;;;;;;;;;;5087374;28;20578;-65
2021/06/27 06:30:43;;;;;;;9.90;5.45;;;;;;;;;;5086602;28;20232;-66
2021/06/27 06:33:11;;;;;;;9.50;5.60;;;;;;;;;;5065105;28;20023;-65
2021/06/27 06:35:38;;;;;;;6.88;4.80;;;;;;;;;;5079651;28;20471;-64
2021/06/27 06:38:04;;;;;;;9.48;5.35;;;;;;;;;;5066776;28;20347;-67
2021/06/27 06:40:29;;;;;;;8.95;4.78;;;;;;;;;;5079556;28;20451;-66
2021/06/27 06:42:55;;;;;;;8.57;4.88;;;;;;;;;;5085493;28;20452;-65
2021/06/27 06:45:20;;;;;;;9.73;4.53;;;;;;;;;;5053331;28;20039;-65
2021/06/27 06:47:48;;;;;;;7.30;5.18;;;;;;;;;;5060114;28;20028;-67
2021/06/27 06:50:14;;;;;;;8.57;4.93;;;;;;;;;;5047596;28;20090;-65
2021/06/27 06:52:42;;;;;;;6.65;4.22;;;;;;;;;;5066082;28;20110;-65
2021/06/27 06:55:08;;;;;;;8.57;4.93;;;;;;;;;;5049089;28;20031;-65
2021/06/27 06:57:33;;;;;;;9.57;4.63;;;;;;;;;;5065500;28;20367;-64
2021/06/27 06:59:59;;;;;;;8.27;5.07;;;;;;;;;;5036385;28;20051;-64
2021/06/27 07:02:24;;;;;;;8.73;4.93;;;;;;;;;;5065232;28;20039;-64
2021/06/27 07:04:50;;;;;;;7.43;4.90;;;;;;;;;;5047002;28;20220;-65
2021/06/27 07:07:15;;;;;;;7.03;4.93;;;;;;;;;;5083210;28;20099;-67
2021/06/27 07:09:41;;;;;;;6.97;5.20;;;;;;;;;;5069035;28;20024;-64
2021/06/27 07:15:42;;;;;;;8.13;5.78;;;;;;;;;;5085155;28;20019;-64
2021/06/27 07:18:09;;;;;;;9.60;5.00;;;;;;;;;;5082353;28;20028;-66
2021/06/27 07:20:35;;;;;;;7.80;4.93;;;;;;;;;;5066242;28;20044;-65
2021/06/27 07:23:03;;;;;;;9.55;5.45;;;;;;;;;;5086514;28;20064;-65
2021/06/27 07:25:31;;;;;;;10.18;5.13;;;;;;;;;;5084347;28;20118;-64
2021/06/27 07:27:57;;;;;;;9.73;5.57;;;;;;;;;;5068531;28;20028;-65
2021/06/27 07:30:23;;;;;;;6.88;4.70;;;;;;;;;;5082742;28;20039;-66
2021/06/27 07:32:51;;;;;;;7.05;5.00;;;;;;;;;;5064977;28;20028;-67
2021/06/27 07:35:19;;;;;;;8.13;5.50;;;;;;;;;;5081276;28;20463;-65
2021/06/27 07:37:45;;;;;;;10.30;5.00;;;;;;;;;;5062832;28;20032;-65
2021/06/27 07:40:11;;;;;;;9.75;5.72;;;;;;;;;;5064049;28;20030;-66
2021/06/27 07:42:39;;;;;;;7.68;5.45;;;;;;;;;;5085012;28;20491;-66
2021/06/27 07:45:05;;;;;;;7.82;5.65;;;;;;;;;;5066220;28;20047;-65
2021/06/27 07:47:30;;;;;;;9.20;5.47;;;;;;;;;;5063309;28;20074;-67
2021/06/27 07:49:56;;;;;;;8.38;5.15;;;;;;;;;;5084057;28;20320;-65
2021/06/27 07:52:24;;;;;;;5.60;4.57;;;;;;;;;;5040189;28;20025;-67
2021/06/27 07:54:50;;;;;;;6.45;4.40;;;;;;;;;;5069315;28;20089;-65
2021/06/27 07:57:16;;;;;;;8.95;4.93;;;;;;;;;;5065513;28;20505;-68
2021/06/27 07:59:42;;;;;;;8.20;4.60;;;;;;;;;;5061121;28;20040;-67
2021/06/27 08:02:10;;;;;;;8.50;4.85;;;;;;;;;;5065820;28;20134;-65
2021/06/27 08:04:38;;;;;;;6.70;4.38;;;;;;;;;;5064032;28;20127;-65
2021/06/27 08:07:10;;;;;;;6.47;4.32;;;;;;;;;;5046778;28;20040;-66
2021/06/27 08:09:35;;;;;;;7.53;5.32;;;;;;;;;;5047282;28;20028;-65
2021/06/27 08:12:01;;;;;;;5.18;3.85;;;;;;;;;;5060998;28;20113;-66
2021/06/27 08:14:28;;;;;;;7.50;4.03;;;;;;;;;;5035366;28;20480;-67
2021/06/27 08:16:54;;;;;;;4.95;4.13;;;;;;;;;;5047736;28;20126;-65
2021/06/27 08:19:19;;;;;;;5.20;4.03;;;;;;;;;;5063973;28;20073;-65
2021/06/27 08:21:45;;;;;;;4.18;3.65;;;;;;;;;;5082111;28;20028;-66
2021/06/27 08:24:11;;;;;;;5.63;4.50;;;;;;;;;;5061196;28;20119;-65
2021/06/27 08:26:36;;;;;;;5.45;4.15;;;;;;;;;;5081953;28;20071;-68
2021/06/27 08:29:02;;;;;;;5.20;4.28;;;;;;;;;;5060093;28;20509;-68
2021/06/27 08:31:28;;;;;;;6.35;4.45;;;;;;;;;;5081052;28;20025;-66
2021/06/27 08:33:53;;;;;;;5.35;3.90;;;;;;;;;;5064239;28;20016;-66
2021/06/27 08:36:20;;;;;;;14.27;4.32;;;;;;;;;;5068005;28;20032;-67
2021/06/27 08:38:48;;;;;;;5.88;3.83;;;;;;;;;;5081521;28;20499;-66
2021/06/27 08:41:15;;;;;;;6.53;3.50;;;;;;;;;;5084580;28;20038;-65
2021/06/27 08:43:40;;;;;;;5.47;3.90;;;;;;;;;;5063262;28;20066;-65
2021/06/27 08:46:08;;;;;;;6.43;4.20;;;;;;;;;;5068065;28;20020;-65
2021/06/27 08:48:37;;;;;;;5.10;3.80;;;;;;;;;;5082571;28;20024;-66
2021/06/27 08:51:03;;;;;;;10.73;4.25;;;;;;;;;;5065824;28;20051;-65
2021/06/27 08:53:28;;;;;;;5.57;4.18;;;;;;;;;;5066337;28;20067;-66
2021/06/27 08:56:12;;;;;;;4.18;3.78;;;;;;;;;;5081341;28;20103;-67
2021/06/27 08:58:39;;;;;;;5.13;3.53;;;;;;;;;;5064358;28;20066;-66
2021/06/27 09:01:07;;;;;;;5.50;3.67;;;;;;;;;;5067427;28;20054;-65
2021/06/27 09:03:32;;;;;;;5.60;3.90;;;;;;;;;;5067453;28;20416;-66
2021/06/27 09:05:58;;;;;;;5.15;3.88;;;;;;;;;;5083599;28;20012;-65
2021/06/27 09:08:33;;;;;;;5.03;4.15;;;;;;;;;;5081756;28;20016;-64
2021/06/27 09:11:17;;;;;;;6.00;4.65;;;;;;;;;;5039452;28;20411;-66
2021/06/27 09:13:46;;;;;;;4.90;3.83;;;;;;;;;;5082568;28;20022;-66
2021/06/27 09:16:19;;;;;;;5.22;3.90;;;;;;;;;;5081039;28;20032;-65
2021/06/27 09:18:48;;;;;;;4.68;3.00;;;;;;;;;;5079910;28;20024;-66
2021/06/27 09:21:13;;;;;;;9.40;3.30;;;;;;;;;;5080219;28;20039;-66
2021/06/27 09:23:47;;;;;;;4.60;3.55;;;;;;;;;;5065450;28;20032;-67
2021/06/27 09:26:23;;;;;;;4.20;3.38;;;;;;;;;;5048088;28;20364;-67
2021/06/27 09:28:49;;;;;;;4.63;4.00;;;;;;;;;;5079195;28;20027;-65
2021/06/27 09:31:31;;;;;;;4.82;3.88;;;;;;;;;;5077925;28;20016;-66
2021/06/27 09:34:00;;;;;;;6.75;4.10;;;;;;;;;;5063449;28;20131;-66
2021/06/27 09:36:28;;;;;;;5.85;4.10;;;;;;;;;;5058390;28;20032;-67
2021/06/27 09:38:57;;;;;;;8.20;3.97;;;;;;;;;;5081812;28;20061;-65
2021/06/27 09:41:24;;;;;;;5.03;3.33;;;;;;;;;;5080459;28;20040;-65
2021/06/27 09:43:51;;;;;;;7.18;3.92;;;;;;;;;;5068429;28;20055;-66
2021/06/27 09:46:30;;;;;;;6.93;3.35;;;;;;;;;;5064845;28;20107;-65
2021/06/27 09:49:00;;;;;;;5.60;4.03;;;;;;;;;;5042949;28;20028;-67
2021/06/27 09:51:27;;;;;;;5.30;3.63;;;;;;;;;;5064905;28;20107;-68
2021/06/27 09:53:53;;;;;;;4.93;3.70;;;;;;;;;;5083445;28;20030;-68
2021/06/27 09:56:21;;;;;;;4.75;3.78;;;;;;;;;;5067307;28;20422;-67
2021/06/27 09:58:58;;;;;;;4.50;3.60;;;;;;;;;;5065909;28;20028;-67
2021/06/27 10:01:25;;;;;;;4.53;3.30;;;;;;;;;;5053734;28;20040;-64
2021/06/27 10:03:54;;;;;;;4.53;3.38;;;;;;;;;;5068631;28;20297;-66
2021/06/27 10:06:22;;;;;;;6.70;3.60;;;;;;;;;;5085144;28;20047;-66
2021/06/27 10:08:48;;;;;;;3.67;3.35;;;;;;;;;;5069688;28;20020;-66
2021/06/27 10:11:18;;;;;;;3.83;3.10;;;;;;;;;;5052767;28;20713;-66
2021/06/27 10:13:47;;;;;;;3.28;2.97;;;;;;;;;;5050406;28;20035;-66
2021/06/27 10:16:21;;;;;;;3.45;3.10;;;;;;;;;;5070213;28;20456;-66
2021/06/27 10:18:47;;;;;;;5.85;3.70;;;;;;;;;;5063852;28;20157;-66
2021/06/27 10:21:14;;;;;;;5.80;3.03;;;;;;;;;;5069753;28;20078;-66
2021/06/27 10:23:43;;;;;;;4.32;3.20;;;;;;;;;;5088004;28;20024;-65
2021/06/27 10:26:09;;;;;;;3.88;3.20;;;;;;;;;;5051014;28;20016;-67
2021/06/27 10:28:35;;;;;;;6.10;3.10;;;;;;;;;;5051580;28;20098;-67
2021/06/27 10:31:02;;;;;;;4.10;2.92;;;;;;;;;;5060315;28;20067;-66
2021/06/27 10:33:31;;;;;;;5.50;3.22;;;;;;;;;;5056435;28;22128;-67
2021/06/27 10:36:00;;;;;;;3.92;3.20;;;;;;;;;;5060276;28;20110;-67
2021/06/27 10:38:31;;;;;;;6.15;3.63;;;;;;;;;;5059687;28;20701;-67
2021/06/27 10:40:58;;;;;;;9.57;3.33;;;;;;;;;;5060090;28;20085;-66
2021/06/27 10:43:27;;;;;;;4.00;3.05;;;;;;;;;;5026408;28;20056;-66
2021/06/27 10:45:53;;;;;;;4.45;3.47;;;;;;;;;;5060125;28;20036;-65
2021/06/27 10:48:33;;;;;;;3.97;3.13;;;;;;;;;;5049333;28;20169;-67
2021/06/27 10:50:59;;;;;;;3.58;2.90;;;;;;;;;;5033313;28;20143;-67
2021/06/27 10:53:25;;;;;;;4.60;3.00;;;;;;;;;;5059524;28;20154;-67
2021/06/27 10:55:58;;;;;;;5.80;3.83;;;;;;;;;;5058456;28;20035;-66
2021/06/27 10:58:36;;;;;;;3.90;3.22;;;;;;;;;;5044955;28;20135;-64
2021/06/27 11:01:05;;;;;;;5.35;3.47;;;;;;;;;;5041734;28;20128;-67
2021/06/27 11:03:34;;;;;;;3.47;3.13;;;;;;;;;;5040626;28;20024;-67
2021/06/27 11:06:06;;;;;;;5.75;3.58;;;;;;;;;;5038677;28;20040;-63
2021/06/27 11:08:33;;;;;;;7.85;4.07;;;;;;;;;;5040013;28;20086;-65
2021/06/27 11:11:03;;;;;;;5.82;4.00;;;;;;;;;;5058259;28;20040;-65
2021/06/27 11:14:07;;;;;;;5.05;3.05;;;;;;;;;;5042787;28;20092;-68
2021/06/27 11:16:54;;;;;;;4.22;3.50;;;;;;;;;;5061030;28;20043;-65
2021/06/27 11:19:42;;;;;;;6.43;4.05;;;;;;;;;;5049025;28;20043;-65
2021/06/27 11:22:28;;;;;;;3.10;2.80;;;;;;;;;;5044734;28;20083;-64
2021/06/27 11:25:32;;;;;;;3.67;3.38;;;;;;;;;;5061493;28;20098;-66
2021/06/27 11:28:33;;;;;;;4.95;3.25;;;;;;;;;;5047371;28;22071;-66
2021/06/27 11:31:27;;;;;;;4.05;3.03;;;;;;;;;;5059023;28;20098;-65
2021/06/27 11:34:26;;;;;;;4.43;2.75;;;;;;;;;;5058723;28;20908;-69
2021/06/27 11:37:16;;;;;;;5.20;3.53;;;;;;;;;;5043159;28;20120;-66
2021/06/27 11:40:02;;;;;;;3.85;3.05;;;;;;;;;;5044057;28;20112;-67
2021/06/27 11:42:49;;;;;;;3.08;2.78;;;;;;;;;;5057254;28;20062;-63
2021/06/27 11:45:33;;;;;;;2.92;2.65;;;;;;;;;;5047178;28;20043;-62
2021/06/27 11:48:18;;;;;;;4.22;2.83;;;;;;;;;;5057473;28;20039;-68
2021/06/27 11:51:04;;;;;;;2.83;2.60;;;;;;;;;;5065510;28;21053;-66
2021/06/27 11:53:52;;;;;;;3.92;3.47;;;;;;;;;;5032101;28;20059;-65
2021/06/27 11:56:55;;;;;;;3.95;3.30;;;;;;;;;;5058625;28;20043;-65
2021/06/27 11:59:52;;;;;;;4.63;2.95;;;;;;;;;;5043249;28;20121;-64
2021/06/27 12:02:37;;;;;;;3.50;3.20;;;;;;;;;;5042801;28;20151;-63
2021/06/27 12:05:22;;;;;;;4.32;3.17;;;;;;;;;;5055609;28;20062;-65
2021/06/27 12:08:09;;;;;;;3.00;2.53;;;;;;;;;;5044212;28;22129;-64
2021/06/27 12:10:55;;;;;;;5.13;2.42;;;;;;;;;;5045262;28;20047;-66
2021/06/27 12:13:40;;;;;;;3.28;2.47;;;;;;;;;;5057702;28;20051;-65
2021/06/27 12:16:31;;;;;;;3.22;2.90;;;;;;;;;;5050360;28;20216;-66
2021/06/27 12:19:15;;;;;;;2.50;2.30;;;;;;;;;;5057481;28;20284;-66
2021/06/27 12:21:59;;;;;;;3.40;2.65;;;;;;;;;;5041597;28;20101;-64
2021/06/27 12:24:44;;;;;;;2.65;2.42;;;;;;;;;;5057985;28;20042;-65
2021/06/27 12:27:28;;;;;;;3.97;2.38;;;;;;;;;;5060495;28;20118;-64
2021/06/27 12:30:14;;;;;;;4.38;2.17;;;;;;;;;;5055569;28;20161;-66
2021/06/27 12:32:59;;;;;;;2.22;2.03;;;;;;;;;;5043100;28;20055;-66
2021/06/27 12:35:44;;;;;;;3.22;2.60;;;;;;;;;;5045646;28;20146;-65
2021/06/27 12:38:29;;;;;;;3.58;2.47;;;;;;;;;;5057167;28;21086;-67
2021/06/27 12:41:17;;;;;;;3.42;2.83;;;;;;;;;;5056068;28;20127;-64
2021/06/27 12:44:05;;;;;;;3.97;2.60;;;;;;;;;;5054745;28;20063;-67
2021/06/27 12:46:53;;;;;;;3.30;2.67;;;;;;;;;;5058888;28;20147;-64
2021/06/27 12:49:48;;;;;;;3.67;2.78;;;;;;;;;;5046634;28;20089;-65
2021/06/27 12:52:33;;;;;;;3.08;2.78;;;;;;;;;;5060560;28;20702;-65
2021/06/27 12:55:17;;;;;;;3.17;2.88;;;;;;;;;;5057028;28;20050;-64
2021/06/27 12:58:01;;;;;;;6.00;2.45;;;;;;;;;;5028828;28;20091;-65
2021/06/27 13:00:46;;;;;;;3.22;2.45;;;;;;;;;;5041983;28;20525;-64
2021/06/27 13:03:30;;;;;;;2.70;2.15;;;;;;;;;;5042541;28;20059;-63
2021/06/27 13:06:15;;;;;;;3.28;2.88;;;;;;;;;;5056974;28;20116;-66
2021/06/27 13:09:15;;;;;;;3.53;2.45;;;;;;;;;;5040617;28;20036;-65
2021/06/27 13:12:19;;;;;;;3.40;2.33;;;;;;;;;;5055250;28;20047;-63
2021/06/27 13:14:46;;;;;;;3.00;2.50;;;;;;;;;;5040950;28;20081;-61
2021/06/27 13:17:13;;;;;;;3.75;2.40;;;;;;;;;;5055689;28;20028;-64
2021/06/27 13:20:06;;;;;;;2.67;2.47;;;;;;;;;;5054493;28;20047;-65
2021/06/27 13:22:31;;;;;;;3.03;2.33;;;;;;;;;;5037792;28;20028;-67
2021/06/27 13:25:04;;;;;;;2.17;2.00;;;;;;;;;;5023504;28;20044;-66
2021/06/27 13:27:29;;;;;;;2.13;1.80;;;;;;;;;;5056962;28;20063;-64
2021/06/27 13:30:04;;;;;;;3.25;1.80;;;;;;;;;;5056122;28;20127;-63
2021/06/27 13:32:32;;;;;;;2.00;1.90;;;;;;;;;;5054150;28;20063;-64
2021/06/27 13:34:58;;;;;;;1.70;1.60;;;;;;;;;;5038984;28;20040;-65
2021/06/27 13:37:24;;;;;;;3.30;1.90;;;;;;;;;;5040616;28;20155;-65
2021/06/27 13:39:50;;;;;;;2.22;2.00;;;;;;;;;;5023304;28;20028;-65
2021/06/27 13:42:17;;;;;;;2.03;1.92;;;;;;;;;;5045809;28;20036;-65
2021/06/27 13:44:56;;;;;;;1.98;1.88;;;;;;;;;;5041981;28;20044;-65
2021/06/27 13:47:22;;;;;;;1.55;1.45;;;;;;;;;;5026953;28;20087;-65
2021/06/27 13:49:47;;;;;;;7.45;2.42;;;;;;;;;;5030414;28;20535;-64
2021/06/27 13:52:15;;;;;;;2.92;2.30;;;;;;;;;;5045426;28;20039;-64
2021/06/27 13:54:43;;;;;;;1.80;1.70;;;;;;;;;;5040194;28;20063;-62
2021/06/27 13:57:09;;;;;;;2.60;1.75;;;;;;;;;;5052961;28;20043;-60
2021/06/27 13:59:39;;;;;;;3.25;2.40;;;;;;;;;;5043997;28;20025;-60
2021/06/27 14:02:05;;;;;;;2.90;2.35;;;;;;;;;;5036616;28;20048;-64
2021/06/27 14:04:32;;;;;;;2.42;2.22;;;;;;;;;;5055123;28;21183;-64
2021/06/27 14:06:58;;;;;;;2.75;2.10;;;;;;;;;;5038975;28;20027;-63
2021/06/27 14:09:25;;;;;;;3.22;2.10;;;;;;;;;;5024787;28;20067;-64
2021/06/27 14:11:51;;;;;;;2.08;1.88;;;;;;;;;;5045061;28;20146;-64
2021/06/27 14:14:20;;;;;;;2.25;1.73;;;;;;;;;;5038106;28;20121;-63
2021/06/27 14:16:46;;;;;;;1.60;1.50;;;;;;;;;;5040327;28;20039;-64
2021/06/27 14:19:13;;;;;;;3.20;1.60;;;;;;;;;;5035286;28;20048;-64
2021/06/27 14:21:39;;;;;;;2.03;1.83;;;;;;;;;;5041841;28;21997;-64
2021/06/27 14:24:04;;;;;;;2.58;2.13;;;;;;;;;;5040292;28;20431;-63
2021/06/27 14:26:30;;;;;;;2.55;2.10;;;;;;;;;;5021035;28;20048;-63
2021/06/27 14:28:59;;;;;;;2.10;1.70;;;;;;;;;;5056427;28;20036;-62
2021/06/27 14:31:27;;;;;;;3.03;2.60;;;;;;;;;;5020777;28;20033;-64
2021/06/27 14:33:53;;;;;;;1.90;1.80;;;;;;;;;;5021700;28;20024;-61
2021/06/27 14:36:21;;;;;;;2.20;2.00;;;;;;;;;;5055747;28;20506;-63
2021/06/27 14:38:47;;;;;;;4.20;2.25;;;;;;;;;;5039482;28;20036;-64
2021/06/27 14:41:15;;;;;;;6.10;2.40;;;;;;;;;;5039091;28;20020;-65
2021/06/27 14:43:41;;;;;;;2.40;2.20;;;;;;;;;;5047346;28;20592;-64
2021/06/27 14:46:06;;;;;;;2.40;1.65;;;;;;;;;;5034455;28;20049;-64
2021/06/27 14:48:33;;;;;;;2.17;1.98;;;;;;;;;;5059307;28;20031;-61
2021/06/27 14:51:05;;;;;;;2.30;2.10;;;;;;;;;;5042921;28;20034;-65
2021/06/27 14:53:31;;;;;;;1.70;1.60;;;;;;;;;;5058880;28;20655;-62
2021/06/27 14:56:01;;;;;;;2.38;2.17;;;;;;;;;;5057066;28;20028;-62
2021/06/27 14:58:27;;;;;;;2.83;2.20;;;;;;;;;;5031019;28;20028;-64
2021/06/27 15:00:54;;;;;;;2.35;1.92;;;;;;;;;;5059276;28;20033;-65
2021/06/27 15:03:20;;;;;;;2.03;1.85;;;;;;;;;;5046672;28;20501;-64
2021/06/27 15:05:46;;;;;;;2.03;1.90;;;;;;;;;;5040773;28;20033;-61